Time;durP1;ratioP1;P1;durP2;ratioP2;P2;SDS_P1;SDS_P2;PMS_P1;PMS_P2;Temp;Humidity;BMP_temperature;BMP_pressure;BME280_temperature;BME280_humidity;BME280_pressure;Samples;Min_cycle;Max_cycle;Signal;HPM_P1;HPM_P2
2020/12/27 00:00:31;;;;;;;11.78;7.22;;;;;;;4.25;74.30;101316.58;1748385;82;21144;-62
2020/12/27 00:02:59;;;;;;;10.20;7.67;;;;;;;4.28;74.23;101331.41;1748205;82;21124;-61
2020/12/27 00:05:27;;;;;;;9.35;6.72;;;;;;;4.29;74.25;101339.69;1750516;81;21180;-61
2020/12/27 00:07:56;;;;;;;12.20;7.37;;;;;;;4.34;74.21;101332.02;1737947;82;21135;-61
2020/12/27 00:10:24;;;;;;;9.85;7.12;;;;;;;4.35;73.96;101329.88;1748287;82;21562;-62
2020/12/27 00:12:51;;;;;;;10.53;7.58;;;;;;;4.33;73.99;101332.43;1748227;81;21625;-65
2020/12/27 00:15:19;;;;;;;9.98;7.08;;;;;;;4.16;74.45;101343.27;1757413;81;21139;-61
2020/12/27 00:17:46;;;;;;;13.45;7.55;;;;;;;4.11;74.60;101353.97;1777979;81;21172;-63
2020/12/27 00:20:14;;;;;;;9.93;6.83;;;;;;;4.20;74.40;101364.17;1778940;81;21157;-61
2020/12/27 00:22:41;;;;;;;11.15;6.83;;;;;;;4.60;73.33;101357.53;1771050;81;21142;-62
2020/12/27 00:25:09;;;;;;;10.15;7.40;;;;;;;4.77;72.80;101365.82;1751168;81;21163;-62
2020/12/27 00:27:36;;;;;;;13.20;8.58;;;;;;;4.43;73.64;101377.48;1748245;82;21186;-61
2020/12/27 00:30:04;;;;;;;11.18;7.65;;;;;;;4.31;73.97;101379.72;1748158;82;21575;-62
2020/12/27 00:32:32;;;;;;;12.37;7.50;;;;;;;4.25;74.14;101386.95;1739547;81;21143;-61
2020/12/27 00:34:59;;;;;;;10.08;7.20;;;;;;;4.22;74.21;101381.64;1763665;80;21579;-61
2020/12/27 00:37:32;;;;;;;10.68;7.22;;;;;;;4.20;74.30;101393.73;1779160;81;21171;-61
2020/12/27 00:40:00;;;;;;;11.05;7.42;;;;;;;4.20;74.40;101394.14;1788636;80;21192;-62
2020/12/27 00:42:28;;;;;;;11.80;7.33;;;;;;;4.19;74.47;101395.02;1783970;80;21519;-62
2020/12/27 00:44:57;;;;;;;10.53;7.47;;;;;;;4.18;74.46;101384.12;1792562;80;21123;-63
2020/12/27 00:47:25;;;;;;;12.07;8.03;;;;;;;4.13;74.59;101373.55;1774774;80;21442;-62
2020/12/27 00:49:53;;;;;;;11.97;7.55;;;;;;;4.12;74.62;101366.56;1761566;81;21164;-63
2020/12/27 00:52:21;;;;;;;13.93;8.50;;;;;;;3.99;75.10;101371.83;1767976;80;21130;-63
2020/12/27 00:54:49;;;;;;;13.62;8.63;;;;;;;4.09;74.78;101376.89;1785676;80;21172;-61
2020/12/27 00:57:19;;;;;;;;;;;;;;;4.13;74.61;101384.87;1773627;80;21147;-61
2020/12/27 00:59:47;;;;;;;13.10;8.58;;;;;;;4.13;74.58;101374.84;1792056;80;20161;-63
2020/12/27 01:02:19;;;;;;;12.75;8.85;;;;;;;4.07;74.91;101376.86;1775005;79;21522;-61
2020/12/27 01:04:46;;;;;;;14.90;9.08;;;;;;;4.10;75.01;101369.54;1791902;79;21127;-61
2020/12/27 01:07:14;;;;;;;13.62;8.88;;;;;;;4.23;74.75;101370.38;1792927;80;21170;-61
2020/12/27 01:09:43;;;;;;;13.58;8.08;;;;;;;4.28;74.56;101369.20;1785576;80;21162;-62
2020/12/27 01:12:11;;;;;;;15.68;9.15;;;;;;;4.41;74.22;101374.38;1763063;80;21151;-62
2020/12/27 01:14:39;;;;;;;13.22;8.53;;;;;;;4.39;74.09;101378.23;1761583;80;21138;-61
2020/12/27 01:17:08;;;;;;;12.88;8.68;;;;;;;4.39;73.99;101381.27;1761376;81;21147;-61
2020/12/27 01:19:36;;;;;;;10.43;7.35;;;;;;;4.38;73.99;101379.50;1741187;82;21130;-61
2020/12/27 01:22:12;;;;;;;12.23;8.18;;;;;;;4.38;73.91;101375.16;1724461;83;21158;-61
2020/12/27 01:24:56;;;;;;;13.98;9.23;;;;;;;4.46;73.82;101380.58;1828269;77;22190;-62
2020/12/27 01:27:24;;;;;;;16.07;10.48;;;;;;;4.40;73.75;101391.72;1758373;81;21146;-62
2020/12/27 01:29:52;;;;;;;15.25;11.40;;;;;;;4.43;73.70;101389.61;1760065;80;21159;-60
2020/12/27 01:32:22;;;;;;;16.12;10.45;;;;;;;4.40;73.62;101390.42;1760208;81;21127;-63
2020/12/27 01:34:50;;;;;;;13.13;9.85;;;;;;;4.52;73.21;101387.28;1761811;80;21481;-61
2020/12/27 01:37:19;;;;;;;13.95;9.58;;;;;;;4.46;73.33;101394.92;1752040;81;21170;-63
2020/12/27 01:39:48;;;;;;;12.80;8.40;;;;;;;4.46;73.23;101399.73;1744068;81;21212;-63
2020/12/27 01:42:17;;;;;;;11.10;8.15;;;;;;;4.51;73.08;101398.55;1761185;81;21150;-62
2020/12/27 01:44:45;;;;;;;12.95;7.47;;;;;;;4.48;72.92;101407.58;1761757;80;21138;-63
2020/12/27 01:47:19;;;;;;;10.60;7.22;;;;;;;4.49;72.84;101400.66;1753216;81;21091;-62
2020/12/27 01:49:47;;;;;;;10.72;7.10;;;;;;;4.50;72.72;101398.52;1742280;81;21438;-64
2020/12/27 01:52:15;;;;;;;9.73;6.50;;;;;;;4.48;72.45;101395.84;1731671;83;21178;-64
2020/12/27 01:54:47;;;;;;;10.20;6.12;;;;;;;4.49;72.29;101395.01;1731160;80;21581;-61
2020/12/27 01:57:20;;;;;;;;;;;;;;;4.43;72.46;101385.70;1763334;81;21666;-62
2020/12/27 01:59:51;;;;;;;9.65;6.12;;;;;;;4.42;72.51;101388.75;1761570;80;20473;-62
2020/12/27 02:02:37;;;;;;;10.95;6.00;;;;;;;4.41;72.64;101391.33;1762018;81;21147;-61
2020/12/27 02:05:06;;;;;;;10.15;6.22;;;;;;;4.37;72.76;101390.33;1753205;80;21146;-62
2020/12/27 02:07:34;;;;;;;10.43;7.10;;;;;;;4.38;72.75;101399.05;1762210;81;21296;-63
2020/12/27 02:10:03;;;;;;;8.70;6.05;;;;;;;4.31;72.88;101392.75;1760671;81;21192;-63
2020/12/27 02:12:33;;;;;;;10.38;6.35;;;;;;;4.28;73.06;101398.77;1761991;81;21139;-62
2020/12/27 02:15:01;;;;;;;10.03;6.37;;;;;;;4.31;72.93;101395.36;1737221;81;21180;-61
2020/12/27 02:17:30;;;;;;;10.00;6.62;;;;;;;4.27;72.84;101394.40;1737693;81;21143;-61
2020/12/27 02:20:21;;;;;;;12.18;6.55;;;;;;;4.35;72.89;101393.31;1840960;77;22600;-60
2020/12/27 02:22:50;;;;;;;10.60;6.42;;;;;;;4.36;72.79;101399.42;1796378;79;21119;-62
2020/12/27 02:25:18;;;;;;;10.05;6.33;;;;;;;4.36;72.61;101395.52;1814971;79;21134;-61
2020/12/27 02:27:48;;;;;;;9.63;6.87;;;;;;;4.34;72.33;101408.92;1731373;82;21170;-64
2020/12/27 02:30:16;;;;;;;9.75;5.90;;;;;;;4.33;72.23;101404.11;1699420;83;21289;-61
2020/12/27 02:32:44;;;;;;;10.50;6.40;;;;;;;4.27;72.20;101402.62;1727770;81;21193;-63
2020/12/27 02:35:12;;;;;;;8.03;5.78;;;;;;;4.24;72.07;101397.31;1750807;82;21135;-62
2020/12/27 02:37:40;;;;;;;9.43;5.92;;;;;;;4.19;72.19;101398.92;1728987;83;21166;-62
2020/12/27 02:40:09;;;;;;;9.53;6.12;;;;;;;4.18;72.13;101415.39;1731409;82;21131;-62
2020/12/27 02:42:45;;;;;;;9.60;6.53;;;;;;;4.23;72.04;101409.47;1827358;77;22598;-61
2020/12/27 02:45:13;;;;;;;9.30;5.37;;;;;;;4.18;71.74;101412.35;1785296;80;21176;-60
2020/12/27 02:48:01;;;;;;;7.87;5.67;;;;;;;4.09;71.60;101412.97;1761183;81;21138;-62
2020/12/27 02:50:36;;;;;;;8.48;5.05;;;;;;;4.03;71.74;101408.86;1747461;81;21123;-61
2020/12/27 02:53:04;;;;;;;8.70;5.40;;;;;;;4.02;71.64;101409.70;1713281;83;21160;-60
2020/12/27 02:55:32;;;;;;;9.18;6.17;;;;;;;4.02;71.47;101411.88;1755537;81;21135;-61
2020/12/27 02:58:00;;;;;;;9.88;5.70;;;;;;;3.97;71.43;101419.98;1761854;81;21170;-61
2020/12/27 03:00:33;;;;;;;9.78;5.90;;;;;;;3.91;71.47;101420.19;1756033;81;21162;-61
2020/12/27 03:03:20;;;;;;;10.53;5.95;;;;;;;3.84;71.47;101423.89;1761679;81;21182;-62
2020/12/27 03:05:52;;;;;;;7.50;4.95;;;;;;;3.82;71.41;101426.00;1749129;80;21321;-61
2020/12/27 03:08:21;;;;;;;8.10;5.22;;;;;;;3.77;71.32;101423.66;1739437;81;21165;-61
2020/12/27 03:11:07;;;;;;;11.63;7.08;;;;;;;3.75;71.46;101427.93;1830470;77;22178;-59
2020/12/27 03:13:35;;;;;;;11.93;7.45;;;;;;;3.68;71.44;101433.37;1790910;80;21134;-60
2020/12/27 03:16:04;;;;;;;11.97;6.37;;;;;;;3.62;71.64;101441.84;1793115;80;21138;-60
2020/12/27 03:18:37;;;;;;;9.05;6.17;;;;;;;3.64;71.34;101443.21;1793368;79;21102;-59
2020/12/27 03:21:06;;;;;;;9.65;6.28;;;;;;;3.64;71.50;101446.68;1786430;80;21142;-60
2020/12/27 03:23:34;;;;;;;10.82;6.40;;;;;;;3.61;71.37;101447.88;1761971;81;21617;-59
2020/12/27 03:26:03;;;;;;;9.20;5.85;;;;;;;3.55;71.58;101452.48;1794739;79;21095;-62
2020/12/27 03:28:31;;;;;;;9.73;6.42;;;;;;;3.55;71.57;101447.27;1769826;79;21130;-62
2020/12/27 03:31:00;;;;;;;9.38;6.05;;;;;;;3.53;71.54;101450.23;1772349;80;21164;-64
2020/12/27 03:33:30;;;;;;;9.93;5.83;;;;;;;3.52;71.45;101460.61;1777105;80;21111;-62
2020/12/27 03:36:02;;;;;;;11.35;5.53;;;;;;;3.51;71.70;101456.23;1781172;79;21115;-62
2020/12/27 03:38:32;;;;;;;9.40;5.42;;;;;;;3.51;71.70;101453.64;1744843;82;21166;-61
2020/12/27 03:41:10;;;;;;;10.78;5.28;;;;;;;3.56;71.72;101445.53;1733545;81;21216;-62
2020/12/27 03:43:42;;;;;;;9.40;5.12;;;;;;;3.56;71.75;101437.33;1733146;82;21183;-61
2020/12/27 03:46:10;;;;;;;11.50;6.15;;;;;;;3.59;71.71;101435.66;1754957;81;21139;-61
2020/12/27 03:48:48;;;;;;;9.90;5.95;;;;;;;3.65;71.70;101437.17;1832340;77;22555;-59
2020/12/27 03:51:17;;;;;;;9.03;6.20;;;;;;;3.61;71.73;101438.77;1771573;80;21279;-61
2020/12/27 03:53:45;;;;;;;9.05;5.15;;;;;;;3.61;71.58;101443.97;1789784;80;21117;-61
2020/12/27 03:56:17;;;;;;;11.03;5.53;;;;;;;3.61;71.63;101447.02;1791970;80;21182;-61
2020/12/27 03:59:01;;;;;;;8.93;5.85;;;;;;;3.59;71.33;101459.95;1773292;80;21403;-61
2020/12/27 04:01:46;;;;;;;8.83;5.72;;;;;;;3.52;71.37;101445.86;1764232;80;21283;-61
2020/12/27 04:04:17;;;;;;;9.43;5.42;;;;;;;3.53;71.53;101441.56;1793982;80;21118;-60
2020/12/27 04:06:47;;;;;;;8.18;5.53;;;;;;;3.53;71.49;101446.77;1791828;80;21134;-61
2020/12/27 04:09:16;;;;;;;9.45;5.37;;;;;;;3.54;71.47;101448.50;1737969;81;21137;-61
2020/12/27 04:11:45;;;;;;;10.65;5.60;;;;;;;3.54;71.53;101445.50;1782300;80;21082;-61
2020/12/27 04:14:14;;;;;;;8.10;4.60;;;;;;;3.57;71.27;101440.39;1765238;81;21177;-62
2020/12/27 04:16:42;;;;;;;9.00;5.50;;;;;;;3.57;71.27;101440.39;1778971;80;21803;-62
2020/12/27 04:19:10;;;;;;;8.88;4.92;;;;;;;3.59;71.34;101448.67;1796240;80;21157;-62
2020/12/27 04:21:58;;;;;;;8.55;5.08;;;;;;;3.56;71.53;101441.23;1813872;77;22139;-59
2020/12/27 04:24:44;;;;;;;8.90;5.12;;;;;;;3.50;71.69;101452.73;1761846;80;21183;-60
2020/12/27 04:27:12;;;;;;;9.05;5.80;;;;;;;3.50;71.60;101454.47;1761917;81;21126;-61
2020/12/27 04:29:40;;;;;;;8.90;5.28;;;;;;;3.47;71.61;101452.62;1768127;80;21506;-61
2020/12/27 04:32:08;;;;;;;8.85;5.65;;;;;;;3.46;71.38;101453.89;1765068;80;21150;-61
2020/12/27 04:34:44;;;;;;;13.00;8.53;;;;;;;3.48;71.50;101457.00;1821111;77;28361;-59
2020/12/27 04:37:13;;;;;;;8.68;6.33;;;;;;;3.45;71.39;101458.62;1761624;81;21149;-61
2020/12/27 04:39:42;;;;;;;9.75;6.58;;;;;;;3.45;71.42;101471.64;1769256;80;21154;-60
2020/12/27 04:42:10;;;;;;;10.85;5.30;;;;;;;3.45;71.47;101476.41;1762200;81;21151;-61
2020/12/27 04:44:39;;;;;;;9.68;5.60;;;;;;;3.47;71.46;101476.48;1768010;80;21111;-61
2020/12/27 04:47:09;;;;;;;10.08;6.25;;;;;;;3.45;71.62;101487.26;1761859;81;21163;-61
2020/12/27 04:49:47;;;;;;;7.75;5.28;;;;;;;3.48;71.46;101486.94;1827386;77;22233;-60
2020/12/27 04:52:15;;;;;;;8.30;5.08;;;;;;;3.48;71.47;101496.48;1761677;81;21578;-60
2020/12/27 04:54:59;;;;;;;10.85;5.42;;;;;;;3.53;71.21;101501.44;1827703;77;22174;-60
2020/12/27 04:57:28;;;;;;;9.88;6.05;;;;;;;3.50;71.36;101507.40;1747882;81;21123;-61
2020/12/27 04:59:56;;;;;;;8.28;5.37;;;;;;;3.49;71.51;101497.81;1749088;81;21159;-62
2020/12/27 05:02:43;;;;;;;10.40;5.45;;;;;;;3.52;71.39;101491.85;1732499;81;21155;-60
2020/12/27 05:05:14;;;;;;;12.23;5.92;;;;;;;3.52;71.57;101496.62;1761825;80;21138;-60
2020/12/27 05:07:45;;;;;;;8.48;5.67;;;;;;;3.55;71.48;101504.94;1752626;81;21139;-62
2020/12/27 05:10:21;;;;;;;11.70;8.93;;;;;;;3.64;71.53;101509.61;1824908;77;28466;-60
2020/12/27 05:12:50;;;;;;;9.50;6.17;;;;;;;3.60;71.42;101519.44;1780833;80;21253;-59
2020/12/27 05:15:18;;;;;;;9.40;6.05;;;;;;;3.66;71.34;101514.45;1764382;78;21142;-59
2020/12/27 05:17:47;;;;;;;7.45;5.00;;;;;;;3.67;71.15;101516.22;1727321;82;21184;-60
2020/12/27 05:20:18;;;;;;;9.75;5.78;;;;;;;3.61;71.07;101520.78;1697422;83;21158;-61
2020/12/27 05:22:47;;;;;;;8.10;5.55;;;;;;;3.59;71.36;101521.58;1710465;83;21122;-62
2020/12/27 05:25:24;;;;;;;8.60;5.33;;;;;;;3.66;71.38;101514.45;1819992;77;22499;-59
2020/12/27 05:28:09;;;;;;;9.45;5.33;;;;;;;3.64;71.39;101517.41;1722801;81;21158;-61
2020/12/27 05:30:54;;;;;;;8.93;5.80;;;;;;;3.66;71.27;101526.17;1740036;81;21320;-61
2020/12/27 05:33:43;;;;;;;8.00;5.05;;;;;;;3.64;71.19;101527.83;1741958;80;21166;-61
2020/12/27 05:36:31;;;;;;;8.75;4.72;;;;;;;3.63;71.30;101539.95;1762100;81;21604;-62
2020/12/27 05:39:01;;;;;;;10.32;5.87;;;;;;;3.59;71.30;101540.67;1759884;81;21170;-62
2020/12/27 05:41:48;;;;;;;9.83;4.92;;;;;;;3.66;71.53;101540.05;1819364;77;22158;-59
2020/12/27 05:44:19;;;;;;;7.75;4.67;;;;;;;3.66;71.53;101552.20;1790261;78;21142;-61
2020/12/27 05:46:50;;;;;;;8.75;5.92;;;;;;;3.71;71.49;101550.22;1780685;80;21146;-61
2020/12/27 05:49:19;;;;;;;10.00;5.85;;;;;;;3.74;71.37;101553.77;1767101;80;21130;-62
2020/12/27 05:51:55;;;;;;;10.78;6.00;;;;;;;3.75;71.59;101559.05;1792346;78;21121;-61
2020/12/27 05:54:35;;;;;;;9.08;5.70;;;;;;;3.82;71.72;101567.51;1783354;79;21656;-62
2020/12/27 05:57:05;;;;;;;12.28;5.35;;;;;;;3.89;71.69;101575.14;1788214;79;21122;-60
2020/12/27 05:59:36;;;;;;;13.70;5.67;;;;;;;3.95;71.82;101580.56;1762194;81;21166;-61
2020/12/27 06:02:05;;;;;;;;;;;;;;;3.99;71.52;101583.71;1778174;79;21968;-62
2020/12/27 06:04:45;;;;;;;7.87;4.87;;;;;;;4.04;71.72;101582.98;1787793;80;20124;-61
2020/12/27 06:07:36;;;;;;;11.25;6.08;;;;;;;4.07;71.37;101578.78;1773503;80;21958;-61
2020/12/27 06:10:09;;;;;;;11.90;6.08;;;;;;;4.07;71.29;101582.69;1763959;79;21119;-62
2020/12/27 06:13:05;;;;;;;14.25;5.67;;;;;;;4.13;71.34;101587.21;1769022;79;21181;-62
2020/12/27 06:15:36;;;;;;;12.63;5.50;;;;;;;4.12;71.49;101596.77;1756377;80;21192;-63
2020/12/27 06:18:23;;;;;;;12.98;5.10;;;;;;;4.12;71.61;101616.31;1769823;80;21146;-62
2020/12/27 06:21:09;;;;;;;10.08;5.67;;;;;;;4.14;71.60;101615.95;1772867;79;21191;-62
2020/12/27 06:23:46;;;;;;;9.73;5.47;;;;;;;4.21;71.60;101617.03;1815683;77;22566;-61
2020/12/27 06:26:17;;;;;;;13.93;5.22;;;;;;;4.23;71.38;101615.36;1741497;81;21169;-60
2020/12/27 06:28:58;;;;;;;8.20;5.50;;;;;;;4.25;71.28;101614.09;1650762;84;21565;-62
2020/12/27 06:31:27;;;;;;;9.88;5.47;;;;;;;4.24;71.37;101611.02;1687295;84;21376;-61
2020/12/27 06:34:13;;;;;;;10.25;5.50;;;;;;;4.24;71.32;101611.92;1684826;84;21128;-61
2020/12/27 06:36:43;;;;;;;8.90;5.47;;;;;;;4.22;71.13;101612.69;1725894;83;21200;-62
2020/12/27 06:39:30;;;;;;;8.35;5.08;;;;;;;4.19;71.33;101613.48;1723884;83;21153;-62
2020/12/27 06:42:28;;;;;;;9.33;4.83;;;;;;;4.21;71.62;101609.61;1847013;77;22147;-59
2020/12/27 06:45:29;;;;;;;7.30;5.37;;;;;;;4.24;71.28;101624.95;1792372;78;21146;-60
2020/12/27 06:48:35;;;;;;;8.28;5.15;;;;;;;4.24;71.28;101624.95;1788373;79;21649;-61
2020/12/27 06:51:40;;;;;;;9.43;4.70;;;;;;;4.20;71.72;101632.59;1748590;79;21134;-61
2020/12/27 06:54:09;;;;;;;8.03;4.45;;;;;;;4.22;71.65;101629.63;1787660;79;21139;-62
2020/12/27 06:56:44;;;;;;;7.70;5.03;;;;;;;4.25;71.54;101638.45;1724067;82;21119;-61
2020/12/27 06:59:35;;;;;;;8.35;4.53;;;;;;;4.27;71.50;101632.88;1824157;77;22151;-59
2020/12/27 07:02:07;;;;;;;11.10;5.35;;;;;;;4.23;71.42;101634.91;1744832;80;21142;-61
2020/12/27 07:04:37;;;;;;;9.08;5.35;;;;;;;4.21;71.25;101636.58;1791997;80;21111;-61
2020/12/27 07:07:05;;;;;;;8.23;4.75;;;;;;;4.19;71.31;101639.55;1778091;80;21166;-64
2020/12/27 07:09:35;;;;;;;10.72;6.12;;;;;;;4.17;71.30;101628.18;1761983;81;21128;-61
2020/12/27 07:12:05;;;;;;;7.83;4.97;;;;;;;4.18;71.40;101623.44;1732682;80;21561;-63
2020/12/27 07:14:41;;;;;;;7.20;4.80;;;;;;;4.19;71.33;101619.13;1792182;80;21582;-61
2020/12/27 07:17:10;;;;;;;7.67;4.97;;;;;;;4.19;71.06;101618.70;1783988;80;21193;-62
2020/12/27 07:19:38;;;;;;;10.45;6.08;;;;;;;4.21;71.03;101623.55;1697595;84;21182;-60
2020/12/27 07:22:08;;;;;;;10.15;7.37;;;;;;;4.18;71.23;101620.83;1739485;81;21550;-62
2020/12/27 07:24:38;;;;;;;8.65;5.55;;;;;;;4.22;71.54;101624.02;1736006;80;21278;-62
2020/12/27 07:27:09;;;;;;;9.33;5.12;;;;;;;4.33;71.62;101626.97;1743452;81;21181;-63
2020/12/27 07:29:37;;;;;;;8.78;4.55;;;;;;;4.34;71.04;101620.92;1728437;81;21574;-62
2020/12/27 07:32:04;;;;;;;9.60;6.25;;;;;;;4.32;71.02;101630.41;1731225;81;21091;-63
2020/12/27 07:34:33;;;;;;;8.25;5.08;;;;;;;4.33;70.99;101635.23;1728407;83;21132;-61
2020/12/27 07:37:03;;;;;;;8.98;5.35;;;;;;;4.38;71.02;101631.92;1721730;83;21106;-62
2020/12/27 07:39:54;;;;;;;7.60;5.08;;;;;;;4.41;71.03;101635.07;1719669;82;21577;-61
2020/12/27 07:42:28;;;;;;;;;;;;;;;4.42;71.09;101637.72;1718056;81;21292;-63
2020/12/27 07:44:59;;;;;;;8.80;4.90;;;;;;;4.40;70.76;101636.77;1713875;82;20171;-62
2020/12/27 07:47:27;;;;;;;9.58;5.37;;;;;;;4.39;71.02;101640.22;1729651;82;21154;-62
2020/12/27 07:50:12;;;;;;;10.23;5.47;;;;;;;4.44;71.13;101654.70;1708017;82;21316;-62
2020/12/27 07:52:50;;;;;;;7.55;4.83;;;;;;;4.49;71.05;101658.78;1732650;82;21162;-61
2020/12/27 07:55:31;;;;;;;11.08;4.95;;;;;;;4.46;71.21;101663.05;1713640;82;21178;-61
2020/12/27 07:58:02;;;;;;;7.92;5.37;;;;;;;4.49;71.26;101662.69;1708993;82;21166;-59
2020/12/27 08:00:32;;;;;;;10.53;5.40;;;;;;;4.52;71.65;101660.19;1713661;83;21146;-61
2020/12/27 08:03:05;;;;;;;13.38;7.65;;;;;;;4.60;71.87;101663.51;1705454;83;21316;-62
2020/12/27 08:05:34;;;;;;;10.38;8.38;;;;;;;4.64;71.52;101672.73;1692801;83;21190;-61
2020/12/27 08:08:08;;;;;;;11.60;7.08;;;;;;;4.63;71.43;101673.58;1695350;83;21198;-62
2020/12/27 08:10:35;;;;;;;10.40;6.40;;;;;;;4.65;71.49;101674.52;1716026;83;21762;-61
2020/12/27 08:13:05;;;;;;;8.28;5.47;;;;;;;4.68;71.57;101675.92;1709331;83;21186;-61
2020/12/27 08:15:40;;;;;;;9.30;6.40;;;;;;;4.73;71.47;101676.96;1775614;81;21146;-61
2020/12/27 08:18:09;;;;;;;8.90;5.35;;;;;;;4.78;71.66;101679.30;1769269;81;21273;-61
2020/12/27 08:20:47;;;;;;;8.93;5.72;;;;;;;4.85;71.75;101686.50;1748413;80;21167;-61
2020/12/27 08:23:15;;;;;;;9.00;6.00;;;;;;;4.94;71.68;101696.33;1765536;81;21720;-61
2020/12/27 08:25:43;;;;;;;9.23;6.08;;;;;;;5.03;71.65;101691.41;1751889;81;21382;-61
2020/12/27 08:28:14;;;;;;;8.35;5.15;;;;;;;5.14;71.50;101694.75;1762854;81;21107;-61
2020/12/27 08:30:44;;;;;;;7.55;5.42;;;;;;;5.17;71.69;101693.55;1748356;82;21726;-61
2020/12/27 08:33:17;;;;;;;7.17;4.80;;;;;;;5.18;71.96;101690.09;1739075;81;21630;-61
2020/12/27 08:35:48;;;;;;;7.40;4.78;;;;;;;5.35;71.69;101686.29;1775811;81;21143;-61
2020/12/27 08:38:52;;;;;;;7.37;4.58;;;;;;;5.38;71.83;101681.56;1773972;81;21155;-62
2020/12/27 08:41:23;;;;;;;8.40;5.25;;;;;;;5.45;71.73;101680.05;1778718;81;21166;-61
2020/12/27 08:44:08;;;;;;;9.00;4.78;;;;;;;5.47;71.47;101682.28;1748170;82;21143;-61
2020/12/27 08:46:41;;;;;;;9.48;5.50;;;;;;;5.49;71.44;101683.22;1754817;79;21135;-60
2020/12/27 08:49:13;;;;;;;8.50;5.15;;;;;;;5.54;71.42;101682.91;1748341;81;21187;-60
2020/12/27 08:51:42;;;;;;;7.45;5.08;;;;;;;5.56;71.53;101674.70;1748828;81;21165;-60
2020/12/27 08:54:11;;;;;;;8.65;5.30;;;;;;;5.56;71.45;101665.55;1710541;83;21174;-60
2020/12/27 08:56:39;;;;;;;6.85;4.72;;;;;;;5.55;71.16;101660.30;1750687;81;21140;-59
2020/12/27 08:59:07;;;;;;;6.90;4.95;;;;;;;5.53;70.96;101655.45;1752650;82;21172;-60
2020/12/27 09:01:36;;;;;;;6.30;4.75;;;;;;;5.53;70.67;101651.09;1703751;82;21140;-60
2020/12/27 09:04:04;;;;;;;10.15;4.80;;;;;;;5.54;70.51;101647.64;1771651;79;21103;-60
2020/12/27 09:06:31;;;;;;;6.75;4.25;;;;;;;5.47;70.48;101641.38;1780852;80;21157;-60
2020/12/27 09:08:59;;;;;;;7.87;4.62;;;;;;;5.43;70.41;101634.28;1784775;80;21621;-60
2020/12/27 09:11:28;;;;;;;7.45;5.37;;;;;;;5.36;70.45;101630.63;1772295;80;21184;-62
2020/12/27 09:13:55;;;;;;;8.65;5.03;;;;;;;5.36;70.41;101633.63;1749584;80;21173;-61
2020/12/27 09:16:33;;;;;;;9.93;4.67;;;;;;;5.35;70.55;101628.84;1756757;80;21160;-60
2020/12/27 09:19:10;;;;;;;8.75;4.65;;;;;;;5.39;70.68;101617.19;1736695;82;21148;-60
2020/12/27 09:21:38;;;;;;;8.03;4.92;;;;;;;5.40;70.62;101617.22;1758488;80;21134;-61
2020/12/27 09:24:13;;;;;;;8.10;4.87;;;;;;;5.31;70.87;101616.95;1784835;80;21146;-60
2020/12/27 09:26:41;;;;;;;8.38;5.10;;;;;;;5.31;70.83;101614.34;1775215;80;21223;-60
2020/12/27 09:29:17;;;;;;;8.43;5.25;;;;;;;5.15;71.13;101608.69;1720166;83;21230;-60
2020/12/27 09:31:45;;;;;;;9.23;5.47;;;;;;;5.13;71.36;101599.92;1733394;82;21203;-61
2020/12/27 09:34:14;;;;;;;7.28;4.90;;;;;;;5.14;71.58;101593.86;1719335;83;21186;-62
2020/12/27 09:36:42;;;;;;;8.25;5.47;;;;;;;5.15;71.64;101594.33;1677376;82;21123;-61
2020/12/27 09:39:09;;;;;;;7.62;5.20;;;;;;;5.12;71.71;101594.23;1756321;82;21617;-60
2020/12/27 09:41:38;;;;;;;7.58;5.03;;;;;;;5.13;71.92;101603.84;1770716;79;21551;-60
2020/12/27 09:44:05;;;;;;;8.70;5.03;;;;;;;5.20;72.06;101607.09;1787305;80;21147;-61
2020/12/27 09:46:52;;;;;;;8.80;5.47;;;;;;;5.25;72.01;101605.92;1759455;80;21165;-60
2020/12/27 09:49:32;;;;;;;7.78;5.05;;;;;;;5.28;72.04;101595.56;1718262;83;21285;-61
2020/12/27 09:52:08;;;;;;;7.70;5.33;;;;;;;5.34;72.05;101597.45;1758213;80;21154;-60
2020/12/27 09:54:38;;;;;;;8.50;5.12;;;;;;;5.32;72.12;101597.83;1756403;80;21280;-61
2020/12/27 09:57:17;;;;;;;9.35;5.10;;;;;;;5.30;72.22;101588.66;1715417;83;21543;-61
2020/12/27 09:59:46;;;;;;;8.90;5.70;;;;;;;5.31;72.22;101594.35;1767014;80;21091;-60
2020/12/27 10:02:14;;;;;;;8.73;5.70;;;;;;;5.33;72.31;101596.59;1762361;80;21268;-61
2020/12/27 10:04:42;;;;;;;7.05;4.83;;;;;;;5.35;72.36;101590.99;1720339;82;21601;-61
2020/12/27 10:07:11;;;;;;;12.05;6.90;;;;;;;5.40;72.40;101598.94;1768877;80;21163;-61
2020/12/27 10:09:39;;;;;;;10.80;6.22;;;;;;;5.49;72.17;101591.38;1786358;80;21146;-61
2020/12/27 10:12:08;;;;;;;8.73;5.67;;;;;;;5.56;72.09;101583.28;1786066;80;21464;-61
2020/12/27 10:14:36;;;;;;;10.38;5.80;;;;;;;5.58;72.14;101576.81;1764417;80;21142;-62
2020/12/27 10:17:07;;;;;;;8.90;5.95;;;;;;;5.64;72.12;101571.32;1758303;80;21519;-62
2020/12/27 10:19:34;;;;;;;9.60;7.00;;;;;;;5.71;72.01;101569.78;1783648;80;21177;-61
2020/12/27 10:22:03;;;;;;;8.93;6.80;;;;;;;5.71;72.18;101564.96;1787178;80;21162;-62
2020/12/27 10:24:34;;;;;;;12.58;5.95;;;;;;;5.75;72.12;101555.92;1786406;80;21222;-62
2020/12/27 10:27:03;;;;;;;10.30;6.67;;;;;;;5.83;72.02;101556.55;1781080;80;21111;-62
2020/12/27 10:29:32;;;;;;;10.23;6.35;;;;;;;5.84;72.23;101549.18;1776082;80;21106;-61
2020/12/27 10:32:01;;;;;;;9.85;6.90;;;;;;;5.89;72.18;101548.48;1760353;80;21164;-63
2020/12/27 10:34:29;;;;;;;11.30;7.85;;;;;;;5.93;72.19;101546.81;1772300;80;21640;-61
2020/12/27 10:36:58;;;;;;;9.63;6.87;;;;;;;5.90;72.35;101546.73;1754737;80;22197;-63
2020/12/27 10:39:26;;;;;;;8.68;5.97;;;;;;;5.90;72.42;101545.02;1755600;82;21181;-63
2020/12/27 10:41:54;;;;;;;10.45;6.58;;;;;;;5.93;72.30;101542.48;1758538;80;21597;-61
2020/12/27 10:44:23;;;;;;;11.48;6.33;;;;;;;5.98;72.17;101546.51;1714118;83;21276;-63
2020/12/27 10:46:52;;;;;;;11.12;6.90;;;;;;;5.96;72.16;101534.69;1781539;80;21279;-63
2020/12/27 10:49:22;;;;;;;11.75;6.55;;;;;;;6.01;72.16;101530.94;1720165;83;21182;-63
2020/12/27 10:51:50;;;;;;;10.72;6.47;;;;;;;6.08;71.98;101534.58;1758131;80;21133;-63
2020/12/27 10:54:18;;;;;;;9.03;6.00;;;;;;;6.12;71.84;101535.13;1776409;80;21174;-64
2020/12/27 10:56:46;;;;;;;9.65;6.72;;;;;;;6.11;71.74;101529.43;1787097;80;21127;-61
2020/12/27 10:59:17;;;;;;;9.35;6.35;;;;;;;6.08;71.76;101521.10;1758703;80;21142;-63
2020/12/27 11:01:49;;;;;;;8.93;6.25;;;;;;;6.12;71.67;101522.48;1722066;83;21153;-61
2020/12/27 11:04:17;;;;;;;10.70;6.53;;;;;;;6.16;71.70;101519.11;1753589;82;21198;-61
2020/12/27 11:06:45;;;;;;;8.50;6.12;;;;;;;6.20;71.75;101522.22;1744404;82;21144;-63
2020/12/27 11:09:13;;;;;;;8.95;6.40;;;;;;;6.24;71.60;101516.23;1694863;85;21206;-63
2020/12/27 11:12:03;;;;;;;9.18;6.30;;;;;;;6.25;71.56;101509.74;1743827;82;21131;-63
2020/12/27 11:14:30;;;;;;;11.40;7.07;;;;;;;6.21;71.68;101514.44;1647231;85;21585;-61
2020/12/27 11:17:00;;;;;;;10.20;6.78;;;;;;;6.21;71.83;101509.61;1679907;84;21170;-61
2020/12/27 11:19:29;;;;;;;10.63;7.12;;;;;;;6.25;71.83;101510.15;1647968;87;21191;-64
2020/12/27 11:21:59;;;;;;;10.43;6.95;;;;;;;6.36;71.65;101505.20;1728799;83;21150;-62
2020/12/27 11:24:26;;;;;;;8.98;6.40;;;;;;;6.37;71.66;101505.66;1725003;83;21174;-62
2020/12/27 11:26:54;;;;;;;11.40;7.80;;;;;;;6.44;71.59;101504.92;1720246;82;21199;-63
2020/12/27 11:29:22;;;;;;;12.80;7.83;;;;;;;6.44;71.48;101508.84;1719940;83;21664;-64
2020/12/27 11:31:54;;;;;;;10.28;7.90;;;;;;;6.41;71.67;101499.62;1693764;85;21247;-62
2020/12/27 11:34:21;;;;;;;16.80;8.13;;;;;;;6.44;71.71;101485.31;1729050;83;21549;-62
2020/12/27 11:36:49;;;;;;;12.82;7.72;;;;;;;6.45;71.84;101484.45;1687840;85;21162;-62
2020/12/27 11:39:18;;;;;;;11.88;8.08;;;;;;;6.47;72.02;101478.84;1728730;82;21415;-62
2020/12/27 11:41:48;;;;;;;10.70;8.40;;;;;;;6.49;71.92;101477.14;1728686;83;21147;-62
2020/12/27 11:44:16;;;;;;;10.93;8.15;;;;;;;6.54;71.73;101477.27;1729096;83;21162;-62
2020/12/27 11:46:43;;;;;;;14.15;9.53;;;;;;;6.57;71.68;101478.64;1719179;83;21179;-62
2020/12/27 11:49:12;;;;;;;15.58;10.05;;;;;;;6.60;71.69;101469.55;1728177;83;21166;-62
2020/12/27 11:51:39;;;;;;;13.15;10.13;;;;;;;6.61;71.71;101464.78;1728923;83;21739;-63
2020/12/27 11:54:07;;;;;;;14.30;9.75;;;;;;;6.55;71.89;101464.20;1724330;83;21127;-63